createdAt,value
2023-05-05T00:01:10.768Z,99.99
2023-05-05T00:03:41.335Z,99.99
2023-05-05T00:06:11.829Z,99.99
2023-05-05T00:08:41.946Z,99.99
2023-05-05T00:11:12.041Z,99.99
2023-05-05T00:13:42.233Z,99.99
2023-05-05T00:16:12.728Z,99.99
2023-05-05T00:18:43.266Z,99.99
2023-05-05T00:21:13.354Z,99.99
2023-05-05T00:23:43.407Z,99.99
2023-05-05T00:26:15.006Z,99.99
2023-05-05T00:28:50.323Z,99.99
2023-05-05T00:31:20.490Z,99.99
2023-05-05T00:33:50.448Z,99.99
2023-05-05T00:36:20.544Z,99.99
2023-05-05T00:38:50.696Z,99.99
2023-05-05T00:41:20.713Z,99.99
2023-05-05T00:43:50.682Z,99.99
2023-05-05T00:46:29.585Z,99.99
2023-05-05T00:49:00.880Z,99.99
2023-05-05T00:51:31.207Z,99.99
2023-05-05T00:54:02.195Z,99.99
2023-05-05T00:56:32.727Z,99.99
2023-05-05T00:59:05.509Z,99.99
2023-05-05T01:01:36.391Z,99.99
2023-05-05T01:04:06.591Z,99.99
2023-05-05T01:07:11.500Z,99.99
2023-05-05T01:09:41.515Z,99.99
2023-05-05T01:12:25.025Z,99.99
2023-05-05T01:15:06.973Z,99.99
2023-05-05T01:17:43.981Z,99.99
2023-05-05T01:20:22.717Z,99.99
2023-05-05T01:23:02.660Z,99.99
2023-05-05T01:25:59.751Z,99.99
2023-05-05T01:29:09.216Z,99.99
2023-05-05T01:31:54.570Z,99.99
2023-05-05T01:34:34.200Z,99.99
2023-05-05T01:37:09.468Z,99.99
2023-05-05T01:39:42.369Z,99.99
2023-05-05T01:42:16.218Z,99.99
2023-05-05T01:44:47.879Z,99.99
2023-05-05T01:47:21.074Z,99.99
2023-05-05T01:49:53.581Z,99.99
2023-05-05T01:52:24.179Z,99.99
2023-05-05T01:54:54.977Z,99.99
2023-05-05T01:57:27.862Z,99.99
2023-05-05T02:00:00.309Z,99.99
2023-05-05T02:02:30.431Z,99.99
2023-05-05T02:05:01.670Z,99.99
2023-05-05T02:07:32.958Z,99.99
2023-05-05T02:10:05.197Z,99.99
2023-05-05T02:12:36.852Z,99.99
2023-05-05T02:15:08.162Z,99.99
2023-05-05T02:17:38.314Z,99.99
2023-05-05T02:20:10.835Z,99.99
2023-05-05T02:22:40.348Z,99.99
2023-05-05T02:25:11.460Z,99.99
2023-05-05T02:27:45.395Z,99.99
2023-05-05T02:30:19.548Z,99.99
2023-05-05T02:32:59.461Z,99.99
2023-05-05T02:35:37.396Z,99.99
2023-05-05T02:38:18.419Z,99.99
2023-05-05T02:40:53.799Z,99.99
2023-05-05T02:43:26.223Z,99.99
2023-05-05T02:45:56.466Z,99.99
2023-05-05T02:48:26.912Z,99.99
2023-05-05T02:50:57.232Z,99.99
2023-05-05T02:53:33.928Z,99.99
2023-05-05T02:56:12.439Z,99.99
2023-05-05T02:59:03.578Z,99.99
2023-05-05T03:01:36.095Z,99.99
2023-05-05T03:04:16.869Z,99.99
2023-05-05T03:06:59.065Z,99.99
2023-05-05T03:09:53.285Z,99.99
2023-05-05T03:12:28.217Z,99.99
2023-05-05T03:15:16.331Z,99.99
2023-05-05T03:17:48.127Z,99.99
2023-05-05T03:20:19.215Z,99.99
2023-05-05T03:22:51.982Z,99.99
2023-05-05T03:25:21.982Z,99.99
2023-05-05T03:27:52.258Z,99.99
2023-05-05T03:30:24.317Z,99.99
2023-05-05T03:32:54.727Z,99.99
2023-05-05T03:35:25.232Z,99.99
2023-05-05T03:37:56.793Z,99.99
2023-05-05T03:40:40.387Z,99.99
2023-05-05T03:43:14.408Z,99.99
2023-05-05T03:45:44.590Z,99.99
2023-05-05T03:48:15.190Z,99.99
2023-05-05T03:50:47.378Z,99.99
2023-05-05T03:53:19.747Z,99.99
2023-05-05T03:55:50.334Z,99.99
2023-05-05T03:58:20.825Z,99.99
2023-05-05T04:00:51.379Z,99.99
2023-05-05T04:03:22.966Z,99.99
2023-05-05T04:05:53.443Z,99.99
2023-05-05T04:08:24.540Z,99.99
2023-05-05T04:10:54.722Z,99.99
2023-05-05T04:13:25.376Z,99.99
2023-05-05T04:15:56.088Z,99.99
2023-05-05T04:18:26.106Z,99.99
2023-05-05T04:20:55.984Z,99.99
2023-05-05T04:23:26.176Z,99.99
2023-05-05T04:25:56.712Z,99.99
2023-05-05T04:28:28.387Z,99.99
2023-05-05T04:30:58.724Z,99.99
2023-05-05T04:33:28.854Z,99.99
2023-05-05T04:35:59.485Z,99.99
2023-05-05T04:38:30.227Z,99.99
2023-05-05T04:41:01.649Z,99.99
2023-05-05T04:43:32.001Z,99.99
2023-05-05T04:46:02.100Z,99.99
2023-05-05T04:48:35.436Z,99.99
2023-05-05T04:51:08.505Z,99.99
2023-05-05T04:53:39.642Z,99.99
2023-05-05T04:56:10.260Z,99.99
2023-05-05T04:58:41.332Z,99.99
2023-05-05T05:01:11.434Z,99.99
2023-05-05T05:03:42.203Z,99.99
2023-05-05T05:06:12.414Z,99.99
2023-05-05T05:08:42.527Z,99.99
2023-05-05T05:11:12.565Z,99.99
2023-05-05T05:13:42.902Z,99.99
2023-05-05T05:16:12.909Z,99.99
2023-05-05T05:18:42.992Z,99.99
2023-05-05T05:21:13.192Z,99.99
2023-05-05T05:23:43.021Z,99.99
2023-05-05T05:26:13.007Z,99.99
2023-05-05T05:28:43.722Z,99.99
2023-05-05T05:31:13.667Z,99.99
2023-05-05T05:33:45.021Z,99.99
2023-05-05T05:36:17.014Z,99.99
2023-05-05T05:38:47.176Z,99.99
2023-05-05T05:41:17.372Z,99.99
2023-05-05T05:43:49.330Z,99.99
2023-05-05T05:46:20.424Z,99.99
2023-05-05T05:48:52.298Z,99.99
2023-05-05T05:51:23.369Z,99.99
2023-05-05T05:53:55.440Z,99.99
2023-05-05T05:56:26.923Z,99.99
2023-05-05T05:58:57.499Z,99.99
2023-05-05T06:01:27.494Z,99.99
2023-05-05T06:03:57.888Z,99.99
2023-05-05T06:06:29.018Z,99.99
2023-05-05T06:08:59.217Z,99.99
2023-05-05T06:11:29.325Z,99.99
2023-05-05T06:13:59.806Z,99.99
2023-05-05T06:16:30.166Z,99.99
2023-05-05T06:19:03.461Z,99.99
2023-05-05T06:21:33.633Z,99.99
2023-05-05T06:24:03.686Z,99.99
2023-05-05T06:26:34.596Z,99.99
2023-05-05T06:29:04.734Z,99.99
2023-05-05T06:31:34.696Z,99.99
2023-05-05T06:34:04.714Z,99.99
2023-05-05T06:36:34.929Z,99.99
2023-05-05T06:39:05.081Z,99.99
2023-05-05T06:41:35.094Z,99.99
2023-05-05T06:44:06.279Z,99.99
2023-05-05T06:46:36.303Z,99.99
2023-05-05T06:49:06.354Z,99.99
2023-05-05T06:51:37.842Z,99.99
2023-05-05T06:54:07.842Z,99.99
2023-05-05T06:56:37.994Z,99.99
2023-05-05T06:59:08.011Z,99.99
2023-05-05T07:01:37.940Z,99.99
2023-05-05T07:04:08.115Z,99.99
2023-05-05T07:06:37.976Z,99.99
2023-05-05T07:09:07.981Z,99.99
2023-05-05T07:11:39.029Z,99.99
2023-05-05T07:14:09.005Z,99.99
2023-05-05T07:16:40.028Z,99.99
2023-05-05T07:19:10.128Z,99.99
2023-05-05T07:21:40.883Z,99.99
2023-05-05T07:24:11.084Z,99.99
2023-05-05T07:26:40.928Z,99.99
2023-05-05T07:29:10.906Z,99.99
2023-05-05T07:31:41.134Z,99.99
2023-05-05T07:34:10.965Z,99.99
2023-05-05T07:36:41.136Z,99.99
2023-05-05T07:39:11.122Z,99.99
2023-05-05T07:41:40.967Z,99.99
2023-05-05T07:44:11.007Z,99.99
2023-05-05T07:46:40.962Z,99.99
2023-05-05T07:49:11.001Z,99.99
2023-05-05T07:51:41.025Z,99.99
2023-05-05T07:54:11.095Z,99.99
2023-05-05T07:56:41.089Z,99.99
2023-05-05T07:59:12.308Z,99.99
2023-05-05T08:01:43.192Z,99.99
2023-05-05T08:04:13.414Z,99.99
2023-05-05T08:06:43.567Z,99.99
2023-05-05T08:09:13.885Z,99.99
2023-05-05T08:11:43.886Z,99.99
2023-05-05T08:14:13.882Z,99.99
2023-05-05T08:16:43.911Z,99.99
2023-05-05T08:19:25.262Z,99.99
2023-05-05T08:22:01.057Z,99.99
2023-05-05T08:24:31.024Z,99.99
2023-05-05T08:27:00.721Z,99.99
2023-05-05T08:29:30.717Z,99.99
2023-05-05T08:32:00.607Z,99.99
2023-05-05T08:34:30.446Z,99.99
2023-05-05T08:37:01.355Z,99.99
2023-05-05T08:39:31.358Z,99.99
2023-05-05T08:42:01.349Z,99.99
2023-05-05T08:44:31.554Z,99.99
2023-05-05T08:47:03.379Z,99.99
2023-05-05T08:49:46.386Z,99.99
2023-05-05T08:52:24.192Z,99.99
2023-05-05T08:55:02.057Z,99.99
2023-05-05T08:57:49.721Z,99.99
2023-05-05T09:00:22.638Z,99.99
2023-05-05T09:02:53.071Z,99.99
2023-05-05T09:05:23.301Z,99.99
2023-05-05T09:07:53.391Z,99.99
2023-05-05T09:10:23.442Z,99.99
2023-05-05T09:12:53.493Z,99.99
2023-05-05T09:15:23.488Z,99.99
2023-05-05T09:17:53.645Z,99.99
2023-05-05T09:20:23.636Z,99.99
2023-05-05T09:22:54.383Z,99.99
2023-05-05T09:25:24.541Z,99.99
2023-05-05T09:27:56.066Z,99.99
2023-05-05T09:30:28.048Z,99.99
2023-05-05T09:32:58.039Z,99.99
2023-05-05T09:35:28.751Z,99.99
2023-05-05T09:38:12.390Z,99.99
2023-05-05T09:40:52.999Z,99.99
2023-05-05T09:43:24.741Z,99.99
2023-05-05T09:46:08.696Z,99.99
2023-05-05T09:48:38.852Z,99.99
2023-05-05T09:51:09.120Z,99.99
2023-05-05T09:53:43.483Z,99.99
2023-05-05T09:56:13.989Z,99.99
2023-05-05T09:58:44.215Z,99.99
2023-05-05T10:01:26.583Z,99.99
2023-05-05T10:03:56.606Z,99.99
2023-05-05T10:06:49.766Z,99.99
2023-05-05T10:09:19.765Z,99.99
2023-05-05T10:11:50.260Z,99.99
2023-05-05T10:14:21.025Z,99.99
2023-05-05T10:16:53.315Z,99.99
2023-05-05T10:19:25.055Z,99.99
2023-05-05T10:22:00.851Z,99.99
2023-05-05T10:24:58.672Z,99.99
2023-05-05T10:27:30.638Z,99.99
2023-05-05T10:30:09.216Z,99.99
2023-05-05T10:32:59.342Z,99.99
2023-05-05T10:35:32.339Z,99.99
2023-05-05T10:38:04.230Z,99.99
2023-05-05T10:40:35.214Z,99.99
2023-05-05T10:43:06.481Z,99.99
2023-05-05T10:45:36.896Z,99.99
2023-05-05T10:48:12.810Z,99.99
2023-05-05T10:50:51.574Z,99.99
2023-05-05T10:53:30.512Z,99.99
2023-05-05T10:56:18.718Z,99.99
2023-05-05T10:58:59.001Z,99.99
2023-05-05T11:01:33.241Z,99.99
2023-05-05T11:04:22.984Z,99.99
2023-05-05T11:07:14.610Z,99.99
2023-05-05T11:10:07.448Z,99.99
2023-05-05T11:13:01.181Z,99.99
2023-05-05T11:15:38.406Z,99.99
2023-05-05T11:18:08.902Z,99.99
2023-05-05T11:20:41.770Z,99.99
2023-05-05T11:23:12.568Z,99.99
2023-05-05T11:25:47.473Z,99.99
2023-05-05T11:28:19.986Z,99.99
2023-05-05T11:30:59.651Z,99.99
2023-05-05T11:33:38.265Z,99.99
2023-05-05T11:36:10.640Z,99.99
2023-05-05T11:39:08.527Z,99.99
2023-05-05T11:42:15.919Z,99.99
2023-05-05T11:44:47.079Z,99.99
2023-05-05T11:47:17.182Z,99.99
2023-05-05T11:49:47.185Z,99.99
2023-05-05T11:52:17.375Z,99.99
2023-05-05T11:54:51.269Z,99.99
2023-05-05T11:57:28.846Z,99.99
2023-05-05T12:00:04.820Z,99.99
2023-05-05T12:02:35.461Z,99.99
2023-05-05T12:05:06.214Z,99.99
2023-05-05T12:07:36.285Z,99.99
2023-05-05T12:10:06.908Z,99.99
2023-05-05T12:12:41.978Z,99.99
2023-05-05T12:15:12.342Z,99.99
2023-05-05T12:17:47.009Z,99.99
2023-05-05T12:20:17.025Z,99.99
2023-05-05T12:22:48.716Z,99.99
2023-05-05T12:25:19.118Z,99.99
2023-05-05T12:27:54.890Z,99.99
2023-05-05T12:30:25.330Z,99.99
2023-05-05T12:33:09.155Z,99.99
2023-05-05T12:35:39.464Z,99.99
2023-05-05T12:38:09.869Z,99.99
2023-05-05T12:40:50.674Z,99.99
2023-05-05T12:43:33.626Z,99.99
2023-05-05T12:46:12.918Z,99.99
2023-05-05T12:48:48.418Z,99.99
2023-05-05T12:51:20.900Z,99.99
2023-05-05T12:54:06.927Z,99.99
2023-05-05T12:56:41.817Z,99.99
2023-05-05T12:59:31.829Z,99.99
2023-05-05T13:02:05.165Z,99.99
2023-05-05T13:04:35.645Z,99.99
2023-05-05T13:07:14.043Z,99.99
2023-05-05T13:09:44.832Z,99.99
2023-05-05T13:12:15.133Z,99.99
2023-05-05T13:14:45.856Z,99.99
2023-05-05T13:17:16.303Z,99.99
2023-05-05T13:19:49.608Z,99.99
2023-05-05T13:22:20.598Z,99.99
2023-05-05T13:25:07.013Z,99.99
2023-05-05T13:27:38.917Z,99.99
2023-05-05T13:30:09.783Z,99.99
2023-05-05T13:32:39.828Z,99.99
2023-05-05T13:35:10.894Z,99.99
2023-05-05T13:37:43.596Z,99.99
2023-05-05T13:40:14.769Z,99.99
2023-05-05T13:42:45.342Z,99.99
2023-05-05T13:45:15.618Z,99.99
2023-05-05T13:47:46.347Z,99.99
2023-05-05T13:50:16.482Z,99.99
2023-05-05T13:52:46.548Z,99.99
2023-05-05T13:55:16.698Z,99.99
2023-05-05T13:57:46.552Z,99.99
2023-05-05T14:00:17.155Z,99.99
2023-05-05T14:02:47.147Z,99.99
2023-05-05T14:05:17.552Z,99.99
2023-05-05T14:07:48.424Z,99.99
2023-05-05T14:10:18.563Z,99.99
2023-05-05T14:12:48.898Z,99.99
2023-05-05T14:15:20.526Z,99.99
2023-05-05T14:17:50.559Z,99.99
2023-05-05T14:20:22.736Z,99.99
2023-05-05T14:22:53.481Z,99.99
2023-05-05T14:25:23.783Z,99.99
2023-05-05T14:27:54.057Z,99.99
2023-05-05T14:30:24.226Z,99.99
2023-05-05T14:32:54.257Z,99.99
2023-05-05T14:35:24.294Z,99.99
2023-05-05T14:37:54.434Z,99.99
2023-05-05T14:40:24.794Z,99.99
2023-05-05T14:42:54.904Z,99.99
2023-05-05T14:45:25.334Z,99.99
2023-05-05T14:47:55.360Z,99.99
2023-05-05T14:50:25.480Z,99.99
2023-05-05T14:52:55.320Z,99.99
2023-05-05T14:55:26.146Z,99.99
2023-05-05T14:57:56.112Z,99.99
2023-05-05T15:00:27.931Z,99.99
2023-05-05T15:02:58.050Z,99.99
2023-05-05T15:05:28.080Z,99.99
2023-05-05T15:07:58.351Z,99.99
2023-05-05T15:10:28.780Z,99.99
2023-05-05T15:12:58.912Z,99.99
2023-05-05T15:15:29.025Z,99.99
2023-05-05T15:17:59.065Z,99.99
2023-05-05T15:20:29.370Z,99.99
2023-05-05T15:22:59.431Z,99.99
2023-05-05T15:25:29.264Z,99.99
2023-05-05T15:28:00.123Z,99.99
2023-05-05T15:30:30.218Z,99.98
2023-05-05T15:33:00.273Z,99.99
2023-05-05T15:35:30.335Z,99.15
2023-05-05T15:38:00.333Z,98.10
2023-05-05T15:40:30.476Z,98.83
2023-05-05T15:43:00.471Z,98.12
2023-05-05T15:45:30.259Z,98.90
2023-05-05T15:48:00.903Z,97.14
2023-05-05T15:50:31.040Z,96.18
2023-05-05T15:53:01.672Z,96.18
2023-05-05T15:55:31.946Z,94.88
2023-05-05T15:58:02.190Z,94.95
2023-05-05T16:00:32.611Z,93.84
2023-05-05T16:03:02.729Z,94.54
2023-05-05T16:05:32.760Z,94.84
2023-05-05T16:08:02.921Z,94.55
2023-05-05T16:10:32.904Z,93.64
2023-05-05T16:13:02.953Z,94.16
2023-05-05T16:15:32.940Z,94.42
2023-05-05T16:18:03.086Z,95.02
2023-05-05T16:20:33.123Z,95.25
2023-05-05T16:23:02.952Z,95.18
2023-05-05T16:25:32.785Z,95.70
2023-05-05T16:28:02.958Z,95.58
2023-05-05T16:30:32.964Z,94.87
2023-05-05T16:33:03.067Z,94.38
2023-05-05T16:35:33.127Z,94.96
2023-05-05T16:38:03.212Z,94.82
2023-05-05T16:40:33.125Z,94.34
2023-05-05T16:43:02.974Z,94.61
2023-05-05T16:45:32.826Z,94.07
2023-05-05T16:48:03.098Z,94.29
2023-05-05T16:50:33.555Z,93.69
2023-05-05T16:53:03.557Z,94.30
2023-05-05T16:55:33.396Z,94.06
2023-05-05T16:58:03.392Z,94.49
2023-05-05T17:00:33.363Z,94.57
2023-05-05T17:03:03.379Z,95.29
2023-05-05T17:05:33.418Z,94.51
2023-05-05T17:08:04.326Z,94.68
2023-05-05T17:10:34.281Z,94.75
2023-05-05T17:13:04.173Z,95.54
2023-05-05T17:15:33.985Z,95.27
2023-05-05T17:18:03.985Z,95.03
2023-05-05T17:20:34.546Z,95.16
2023-05-05T17:23:04.641Z,94.96
2023-05-05T17:25:34.610Z,95.25
2023-05-05T17:28:04.556Z,94.89
2023-05-05T17:30:34.499Z,94.79
2023-05-05T17:33:04.406Z,95.33
2023-05-05T17:35:34.474Z,93.69
2023-05-05T17:38:04.526Z,93.68
2023-05-05T17:40:34.639Z,94.73
2023-05-05T17:43:04.691Z,94.67
2023-05-05T17:45:34.759Z,94.23
2023-05-05T17:48:04.847Z,94.83
2023-05-05T17:50:34.961Z,94.25
2023-05-05T17:53:05.597Z,94.88
2023-05-05T17:55:35.576Z,96.42
2023-05-05T17:58:05.737Z,97.67
2023-05-05T18:00:35.818Z,98.74
2023-05-05T18:03:06.596Z,98.51
2023-05-05T18:05:36.738Z,98.81
2023-05-05T18:08:06.884Z,99.56
2023-05-05T18:10:36.904Z,99.87
2023-05-05T18:13:06.932Z,99.99
2023-05-05T18:15:37.131Z,99.99
2023-05-05T18:18:08.158Z,99.99
2023-05-05T18:20:38.479Z,99.99
2023-05-05T18:23:08.538Z,99.99
2023-05-05T18:25:38.467Z,99.99
2023-05-05T18:28:08.551Z,99.99
2023-05-05T18:30:38.776Z,99.99
2023-05-05T18:33:08.989Z,99.99
2023-05-05T18:35:39.174Z,99.99
2023-05-05T18:38:09.188Z,99.99
2023-05-05T18:40:39.294Z,99.99
2023-05-05T18:43:09.526Z,99.99
2023-05-05T18:45:39.484Z,99.99
2023-05-05T18:48:09.413Z,99.99
2023-05-05T18:50:39.377Z,99.99
2023-05-05T18:53:11.833Z,99.99
2023-05-05T18:55:43.873Z,99.99
2023-05-05T18:58:14.209Z,99.99
2023-05-05T19:00:44.473Z,99.99
2023-05-05T19:03:14.484Z,99.99
2023-05-05T19:05:44.561Z,99.65
2023-05-05T19:08:14.729Z,99.99
2023-05-05T19:10:45.612Z,99.99
2023-05-05T19:13:15.656Z,99.99
2023-05-05T19:15:45.839Z,99.99
2023-05-05T19:18:16.777Z,99.99
2023-05-05T19:20:46.794Z,99.99
2023-05-05T19:23:16.932Z,99.99
2023-05-05T19:25:47.501Z,99.99
2023-05-05T19:28:17.509Z,99.99
2023-05-05T19:30:49.673Z,99.99
2023-05-05T19:33:19.664Z,99.99
2023-05-05T19:35:49.508Z,99.99
2023-05-05T19:38:19.648Z,99.99
2023-05-05T19:40:49.490Z,99.99
2023-05-05T19:43:19.492Z,99.99
2023-05-05T19:45:49.634Z,99.99
2023-05-05T19:48:19.481Z,99.99
2023-05-05T19:50:49.696Z,99.99
2023-05-05T19:53:19.536Z,99.99
2023-05-05T19:55:50.168Z,99.99
2023-05-05T19:58:20.157Z,99.99
2023-05-05T20:00:51.996Z,99.99
2023-05-05T20:03:22.349Z,99.99
2023-05-05T20:05:52.574Z,99.99
2023-05-05T20:08:22.396Z,99.99
2023-05-05T20:10:52.373Z,99.99
2023-05-05T20:13:22.530Z,99.99
2023-05-05T20:15:52.562Z,99.99
2023-05-05T20:18:22.670Z,99.99
2023-05-05T20:20:52.545Z,99.99
2023-05-05T20:23:22.747Z,99.99
2023-05-05T20:25:53.279Z,99.99
2023-05-05T20:28:23.762Z,99.99
2023-05-05T20:30:53.819Z,99.99
2023-05-05T20:33:23.821Z,99.99
2023-05-05T20:35:54.544Z,99.99
2023-05-05T20:38:24.570Z,99.99
2023-05-05T20:40:54.591Z,99.99
2023-05-05T20:43:25.441Z,99.99
2023-05-05T20:45:55.475Z,99.99
2023-05-05T20:48:25.631Z,99.99
2023-05-05T20:50:55.464Z,99.99
2023-05-05T20:53:26.581Z,99.99
2023-05-05T20:55:56.711Z,99.99
2023-05-05T20:58:27.049Z,99.99
2023-05-05T21:00:57.266Z,99.99
2023-05-05T21:03:27.361Z,99.99
2023-05-05T21:05:57.361Z,99.99
2023-05-05T21:08:27.986Z,99.99
2023-05-05T21:10:57.991Z,99.99
2023-05-05T21:13:27.925Z,99.99
2023-05-05T21:15:57.745Z,99.99
2023-05-05T21:18:28.732Z,99.99
2023-05-05T21:20:58.740Z,99.99
2023-05-05T21:23:28.592Z,99.99
2023-05-05T21:25:58.850Z,99.99
2023-05-05T21:28:28.880Z,99.99
2023-05-05T21:31:20.409Z,99.99
2023-05-05T21:33:49.559Z,99.99
2023-05-05T21:36:21.198Z,99.99
2023-05-05T21:38:51.443Z,99.99
2023-05-05T21:41:21.498Z,99.99
2023-05-05T21:43:51.489Z,99.99
2023-05-05T21:46:21.730Z,99.99
2023-05-05T21:48:54.047Z,99.99
2023-05-05T21:51:24.676Z,99.99
2023-05-05T21:53:54.650Z,99.99
2023-05-05T21:56:24.446Z,99.99
2023-05-05T21:58:54.604Z,99.99
2023-05-05T22:01:24.638Z,99.99
2023-05-05T22:03:55.388Z,99.99
2023-05-05T22:06:25.663Z,99.99
2023-05-05T22:08:55.500Z,99.99
2023-05-05T22:11:25.647Z,99.99
2023-05-05T22:13:55.787Z,99.99
2023-05-05T22:16:25.794Z,99.99
2023-05-05T22:18:56.433Z,99.99
2023-05-05T22:21:28.046Z,99.99
2023-05-05T22:23:59.034Z,99.99
2023-05-05T22:26:29.267Z,99.99
2023-05-05T22:28:59.550Z,99.99
2023-05-05T22:31:30.548Z,99.99
2023-05-05T22:34:00.604Z,99.99
2023-05-05T22:36:30.807Z,99.99
2023-05-05T22:39:00.790Z,99.99
2023-05-05T22:41:31.505Z,99.99
2023-05-05T22:44:01.493Z,99.99
2023-05-05T22:46:31.568Z,99.99
2023-05-05T22:49:02.034Z,99.99
2023-05-05T22:51:32.921Z,99.99
2023-05-05T22:54:03.099Z,99.99
2023-05-05T22:56:33.241Z,99.99
2023-05-05T22:59:03.124Z,99.99
2023-05-05T23:01:34.720Z,99.99
2023-05-05T23:04:04.838Z,99.99
2023-05-05T23:06:35.507Z,99.99
2023-05-05T23:09:05.693Z,99.99
2023-05-05T23:11:35.668Z,99.99
2023-05-05T23:14:05.529Z,99.99
2023-05-05T23:16:35.772Z,99.99
2023-05-05T23:19:06.274Z,99.99
2023-05-05T23:21:45.490Z,99.99
2023-05-05T23:24:23.378Z,99.99
2023-05-05T23:26:53.424Z,99.99
2023-05-05T23:29:23.308Z,99.99
2023-05-05T23:31:53.187Z,99.99
2023-05-05T23:34:23.029Z,99.99
2023-05-05T23:36:53.042Z,99.99
2023-05-05T23:39:23.033Z,99.99
2023-05-05T23:41:53.048Z,99.99
2023-05-05T23:44:23.077Z,99.99
2023-05-05T23:46:53.081Z,99.99
2023-05-05T23:49:23.854Z,99.99
2023-05-05T23:51:54.502Z,99.99
2023-05-05T23:54:24.491Z,99.99
2023-05-05T23:56:54.337Z,99.99
2023-05-05T23:59:24.293Z,99.99
